Monster Beverage PE Ratio 2006-2018 | MNST

Current and historical p/e ratio for Monster Beverage (MNST) from 2006 to 2018. The price to earnings ratio is calculated by taking the latest closing price and dividing it by the most recent earnings per share (EPS) number. The PE ratio is a simple way to assess whether a stock is over or under valued and is the most widely used valuation measure. Monster Beverage PE ratio as of November 14, 2018 is 32.43.
Monster Beverage PE Ratio Historical Data
Date Stock Price TTM Net EPS PE Ratio
2018-11-14 54.49 45.03
2018-09-30 58.28 $1.21 48.17
2018-06-30 57.30 $1.59 36.04
2018-03-31 57.21 $1.50 38.14
2017-12-31 63.29 $1.43 44.26
2017-09-30 55.25 $1.38 40.04
2017-06-30 49.68 $1.33 37.35
2017-03-31 46.17 $1.24 37.23
2016-12-31 44.34 $1.19 37.16
2016-09-30 48.94 $1.12 43.83
2016-06-30 53.57 $1.07 50.23
2016-03-31 44.46 $1.19 37.47
2015-12-31 49.65 $0.93 53.20
2015-09-30 45.05 $0.95 47.42
2015-06-30 44.67 $0.90 49.46
2015-03-31 46.13 $0.75 61.24
2014-12-31 36.12 $0.93 38.98
2014-09-30 30.56 $0.83 36.67
2014-06-30 23.68 $0.78 30.48
2014-03-31 23.15 $0.71 32.45
2013-12-31 22.59 $0.65 34.57
2013-09-30 17.42 $0.64 27.35
2013-06-30 20.28 $0.62 32.88
2013-03-31 15.91 $0.61 26.23
2012-12-31 17.61 $0.62 28.40
2012-09-30 18.02 $0.61 29.70
2012-06-30 23.73 $0.60 39.77
2012-03-31 20.70 $0.55 37.62
2011-12-31 15.36 $0.51 30.01
2011-09-30 14.55 $0.48 30.10
2011-06-30 13.49 $0.46 29.55
2011-03-31 10.04 $0.42 23.81
2010-12-31 8.71 $0.38 22.83
2010-09-30 7.77 $0.39 20.01
2010-06-30 6.52 $0.37 17.70
2010-03-31 7.23 $0.35 20.46
2009-12-31 6.40 $0.37 17.38
2009-09-30 6.12 $0.23 26.62
2009-06-30 5.14 $0.22 23.38
2009-03-31 6.00 $0.21 29.27
2008-12-31 5.59 $0.18 31.05
2008-09-30 5.04 $0.30 16.90
2008-06-30 4.80 $0.29 16.85
2008-03-31 5.88 $0.27 22.20
2007-12-31 7.38 $0.25 29.33
2007-09-30 9.45 $0.22 43.94
2007-06-30 7.16 $0.18 39.08
2007-03-31 6.31 $0.17 38.26
2006-12-31 5.61 $0.17 34.02
Sector Industry Market Cap Revenue
Consumer Staples Beverages - Soft Drinks $30.844B $3.369B
Based in Corona, California, Monster Beverage Corporation is a holding company and conducts no operating business except through its consolidated subsidiaries. The Company's subsidiaries market and distribute energy drinks, including Monster Energy(R) energy drinks, Monster Energy Extra Strength Nitrous Technology(R) energy drinks, Java Monster(R) non-carbonated coffee + energy drinks, M3(R) Monster Energy(R) Super Concentrate energy drinks, Monster Rehab(R) non-carbonated energy drinks with electrolytes, Muscle Monster(R) Energy Shakes, Ubermonster(R) energy drinks, NOS(R) energy drinks, Full Throttle(R) energy drinks, Burn(R) energy drinks, Samurai(R) energy drinks, Relentless(R) energy drinks, Mother(R) energy drinks, Power Play(R) energy drinks, BU(R) energy drinks, Nalu(R) energy drinks, BPM(R) energy drinks, Gladiator(R) energy drinks, and Ultra(R) energy drinks.
Stock Name Country Market Cap PE Ratio
Coca-Cola (KO) United States $212.698B 24.32
Pepsico (PEP) United States $165.351B 21.42
Keurig Dr Pepper (KDP) United States $38.798B 10.27
Fomento Economico MexicanoB De C.V (FMX) Mexico $30.966B 38.81
Coca Cola FemsaB De C.V (KOF) Mexico $12.533B 19.89
National Beverage (FIZZ) United States $4.226B 26.50
Embotelladora Andina (AKO.B) Chile $3.419B 17.48
Embotelladora Andina (AKO.A) Chile $3.010B 15.39
Cott (COT) Canada $2.090B 101.13
Coca-Cola Bottling Consolidated (COKE) United States $1.772B 55.36
Primo Water (PRMW) United States $0.558B 57.92
Youngevity (YGYI) United States $0.150B 0.00
New Age Beverage (NBEV) United States $0.139B 0.00
Reeds (REED) United States $0.068B 0.00
DAVIDsTEA (DTEA) Canada $0.055B 0.00
SkyPeople Fruit Juice (FTFT) China $0.036B 0.00
Coffee Holding (JVA) United States $0.025B 26.61
Coca-Cola European Partners (CCEP) United Kingdom $0.000B 0.00